Time;durP1;ratioP1;P1;durP2;ratioP2;P2;SDS_P1;SDS_P2;PMS_P1;PMS_P2;Temp;Humidity;BMP_temperature;BMP_pressure;BME280_temperature;BME280_humidity;BME280_pressure;Samples;Min_cycle;Max_cycle;Signal;HPM_P1;HPM_P2
2021/05/11 00:02:06;;;;;;;4.00;1.27;;;15.90;99.90;;;;;;5072560;28;20032;-61
2021/05/11 00:04:32;;;;;;;2.85;1.60;;;15.80;99.90;;;;;;5072724;28;20043;-60
2021/05/11 00:06:58;;;;;;;2.35;1.40;;;15.80;99.90;;;;;;5071838;28;20064;-60
2021/05/11 00:09:23;;;;;;;4.75;1.48;;;15.70;99.90;;;;;;5072806;28;20036;-61
2021/05/11 00:11:49;;;;;;;2.60;1.77;;;15.70;99.90;;;;;;5071008;28;20170;-60
2021/05/11 00:14:14;;;;;;;1.75;1.58;;;15.60;99.90;;;;;;5072251;28;20024;-60
2021/05/11 00:16:40;;;;;;;2.80;1.92;;;15.70;99.90;;;;;;5072747;28;20180;-58
2021/05/11 00:19:07;;;;;;;3.25;1.83;;;15.70;99.90;;;;;;5071007;28;20040;-60
2021/05/11 00:21:33;;;;;;;2.83;1.80;;;15.70;99.90;;;;;;5072821;28;20024;-60
2021/05/11 00:23:58;;;;;;;2.50;1.55;;;15.70;99.90;;;;;;5073211;28;20039;-60
2021/05/11 00:26:24;;;;;;;2.78;1.80;;;15.70;99.90;;;;;;5073180;28;20078;-60
2021/05/11 00:28:49;;;;;;;1.67;1.52;;;15.70;99.90;;;;;;5071045;28;20024;-59
2021/05/11 00:31:15;;;;;;;2.92;1.80;;;15.80;99.90;;;;;;5072215;28;20104;-60
2021/05/11 00:33:40;;;;;;;2.95;1.85;;;15.80;99.90;;;;;;5072742;28;20028;-59
2021/05/11 00:36:06;;;;;;;2.28;1.90;;;15.70;99.90;;;;;;5072355;28;20023;-60
2021/05/11 00:38:31;;;;;;;1.80;1.50;;;15.70;99.90;;;;;;5072983;28;20037;-60
2021/05/11 00:40:57;;;;;;;3.22;1.77;;;15.70;99.90;;;;;;5073339;28;20123;-60
2021/05/11 00:43:22;;;;;;;2.80;2.00;;;15.80;99.90;;;;;;5072842;28;20102;-60
2021/05/11 00:45:48;;;;;;;3.72;2.10;;;15.80;99.90;;;;;;5072666;28;20043;-57
2021/05/11 00:48:13;;;;;;;4.85;1.83;;;15.90;99.90;;;;;;5072725;28;20024;-59
2021/05/11 00:50:39;;;;;;;3.53;1.90;;;15.90;99.90;;;;;;5073770;28;20035;-60
2021/05/11 00:53:05;;;;;;;4.05;1.95;;;15.90;99.90;;;;;;5091410;28;20032;-59
2021/05/11 00:55:30;;;;;;;4.97;2.15;;;15.80;99.90;;;;;;5073079;28;20072;-60
2021/05/11 00:57:56;;;;;;;4.20;1.90;;;15.90;99.90;;;;;;5072713;28;20396;-60
2021/05/11 01:00:22;;;;;;;2.88;2.00;;;15.80;99.90;;;;;;5067159;28;20060;-60
2021/05/11 01:02:47;;;;;;;5.25;2.03;;;15.80;99.90;;;;;;5072793;28;20040;-60
2021/05/11 01:05:13;;;;;;;3.38;1.90;;;15.70;99.90;;;;;;5071281;28;20427;-60
2021/05/11 01:07:39;;;;;;;3.47;1.80;;;15.60;99.90;;;;;;5072600;28;20082;-57
2021/05/11 01:10:05;;;;;;;3.08;1.85;;;15.60;99.90;;;;;;5072562;28;20090;-60
2021/05/11 01:12:30;;;;;;;3.70;1.90;;;15.50;99.90;;;;;;5072582;28;20090;-60
2021/05/11 01:14:56;;;;;;;2.97;1.85;;;15.40;99.90;;;;;;5072177;28;20530;-60
2021/05/11 01:17:33;;;;;;;2.42;2.08;;;15.40;99.90;;;;;;5071494;28;20037;-60
2021/05/11 01:20:01;;;;;;;3.55;2.08;;;15.30;99.90;;;;;;5071222;28;20475;-59
2021/05/11 01:22:36;;;;;;;5.85;2.40;;;15.30;99.90;;;;;;5072900;28;20074;-60
2021/05/11 01:27:41;;;;;;;1.55;1.45;;;15.20;99.90;;;;;;5072556;28;20471;-60
2021/05/11 01:33:13;;;;;;;3.65;2.20;;;15.10;99.90;;;;;;5072100;28;20499;-60
2021/05/11 01:43:57;;;;;;;4.47;2.13;;;14.90;99.90;;;;;;5071325;28;20036;-60
2021/05/11 01:49:18;;;;;;;4.18;2.55;;;14.90;99.90;;;;;;5053466;28;20048;-60
2021/05/11 01:52:20;;;;;;;5.13;2.22;;;14.90;99.90;;;;;;5071152;28;20382;-60
2021/05/11 01:57:51;;;;;;;4.00;2.40;;;14.80;99.90;;;;;;5052504;28;20368;-59
2021/05/11 02:17:54;;;;;;;3.03;2.72;;;14.70;99.90;;;;;;5072053;28;20066;-60
2021/05/11 02:25:00;;;;;;;5.57;2.70;;;14.60;99.90;;;;;;5071443;28;20447;-59
2021/05/11 02:27:25;;;;;;;5.28;2.17;;;14.50;99.90;;;;;;5071770;28;20111;-60
2021/05/11 02:29:51;;;;;;;3.35;2.42;;;14.40;99.90;;;;;;5071179;28;20031;-60
2021/05/11 02:32:18;;;;;;;4.03;2.80;;;14.40;99.90;;;;;;5072063;28;20017;-60
2021/05/11 02:34:44;;;;;;;6.95;2.50;;;14.40;99.90;;;;;;5069945;28;20017;-60
2021/05/11 02:37:10;;;;;;;4.65;2.85;;;14.40;99.90;;;;;;5071008;28;20111;-59
2021/05/11 02:39:37;;;;;;;4.00;2.65;;;14.30;99.90;;;;;;5071738;28;20111;-60
2021/05/11 02:42:03;;;;;;;7.32;2.75;;;14.30;99.90;;;;;;5071384;28;20515;-60
2021/05/11 02:44:36;;;;;;;7.47;2.85;;;14.20;99.90;;;;;;5071439;28;20108;-59
2021/05/11 02:47:01;;;;;;;7.13;3.42;;;14.20;99.90;;;;;;5068138;28;20074;-60
2021/05/11 02:49:27;;;;;;;5.82;3.15;;;14.10;99.90;;;;;;5071932;28;20402;-60
2021/05/11 02:51:53;;;;;;;5.35;3.10;;;14.20;99.90;;;;;;5082401;28;20028;-59
2021/05/11 02:54:18;;;;;;;5.45;2.78;;;14.20;99.90;;;;;;5090233;28;20049;-60
2021/05/11 02:56:44;;;;;;;6.60;2.88;;;14.10;99.90;;;;;;5074860;28;20111;-59
2021/05/11 02:59:09;;;;;;;6.82;2.70;;;14.10;99.90;;;;;;5074835;28;20037;-60
2021/05/11 03:01:35;;;;;;;4.03;2.78;;;14.00;99.90;;;;;;5075098;28;20031;-59
2021/05/11 03:04:00;;;;;;;5.05;3.40;;;13.90;99.90;;;;;;5075036;28;20479;-60
2021/05/11 03:06:26;;;;;;;3.95;2.70;;;13.90;99.90;;;;;;5073797;28;20192;-60
2021/05/11 03:08:51;;;;;;;5.60;2.22;;;13.80;99.90;;;;;;5074482;28;20538;-60
2021/05/11 03:11:17;;;;;;;6.45;2.20;;;13.70;99.90;;;;;;5075044;28;20027;-59
2021/05/11 03:13:42;;;;;;;4.10;2.20;;;13.70;99.90;;;;;;5074941;28;20032;-60
2021/05/11 03:16:08;;;;;;;3.80;2.35;;;13.60;99.90;;;;;;5074288;28;20490;-60
2021/05/11 03:18:33;;;;;;;4.68;1.90;;;13.50;99.90;;;;;;5074598;28;20028;-60
2021/05/11 03:20:59;;;;;;;3.50;2.50;;;13.40;99.90;;;;;;5073995;28;20038;-60
2021/05/11 03:23:24;;;;;;;2.63;2.10;;;13.30;99.90;;;;;;5074506;28;20085;-60
2021/05/11 03:25:51;;;;;;;2.35;2.15;;;13.30;99.90;;;;;;5074671;28;20029;-60
2021/05/11 03:28:16;;;;;;;4.82;2.65;;;13.20;99.90;;;;;;5073976;28;20024;-60
2021/05/11 03:30:42;;;;;;;3.60;1.88;;;13.20;99.90;;;;;;5074158;28;20103;-60
2021/05/11 03:33:09;;;;;;;3.13;2.22;;;13.20;99.90;;;;;;5074351;28;20032;-59
2021/05/11 03:35:34;;;;;;;4.93;2.58;;;13.10;99.90;;;;;;5069143;28;20046;-61
2021/05/11 03:38:00;;;;;;;3.80;2.17;;;13.10;99.90;;;;;;5072131;28;20024;-57
2021/05/11 03:40:26;;;;;;;5.15;2.75;;;13.20;99.90;;;;;;5074543;28;20052;-60
2021/05/11 03:42:55;;;;;;;3.40;2.50;;;13.10;99.90;;;;;;5073718;28;20115;-60
2021/05/11 03:45:25;;;;;;;5.93;3.40;;;13.10;99.90;;;;;;5073951;28;20489;-60
2021/05/11 03:47:53;;;;;;;5.57;3.10;;;13.20;99.90;;;;;;5073604;28;20071;-60
2021/05/11 03:50:19;;;;;;;4.78;3.47;;;13.20;99.90;;;;;;5072590;28;20020;-60
2021/05/11 03:52:44;;;;;;;8.38;3.38;;;13.20;99.90;;;;;;5093147;28;20016;-60
2021/05/11 03:55:11;;;;;;;4.18;2.92;;;13.30;99.90;;;;;;5083603;28;20043;-59
2021/05/11 03:57:37;;;;;;;5.68;2.65;;;13.40;99.90;;;;;;5072539;28;20116;-60
2021/05/11 04:00:04;;;;;;;5.10;3.05;;;13.50;99.90;;;;;;5073282;28;20527;-60
2021/05/11 04:02:29;;;;;;;7.70;5.03;;;13.60;99.90;;;;;;5067577;28;20474;-60
2021/05/11 04:04:55;;;;;;;7.05;3.90;;;13.90;99.90;;;;;;5071937;28;20043;-59
2021/05/11 04:07:20;;;;;;;6.15;3.22;;;14.40;99.90;;;;;;5072777;28;20031;-60
2021/05/11 04:09:52;;;;;;;5.28;3.38;;;14.80;99.90;;;;;;5073323;28;20033;-59
2021/05/11 04:17:46;;;;;;;5.10;3.28;;;15.90;99.90;;;;;;5073480;28;20082;-60
2021/05/11 04:20:12;;;;;;;6.45;3.15;;;16.60;99.90;;;;;;5072117;28;20426;-60
2021/05/11 04:22:38;;;;;;;5.90;3.25;;;16.80;99.90;;;;;;5073287;28;20036;-60
2021/05/11 04:25:05;;;;;;;5.63;3.13;;;16.80;99.90;;;;;;5072823;28;20028;-60
2021/05/11 04:27:30;;;;;;;5.10;3.17;;;17.00;99.90;;;;;;5072723;28;20533;-60
2021/05/11 04:29:59;;;;;;;4.05;3.05;;;17.30;99.90;;;;;;5072667;28;20036;-59
2021/05/11 04:32:25;;;;;;;3.83;3.15;;;17.60;99.90;;;;;;5073338;28;20077;-60
2021/05/11 04:34:51;;;;;;;7.35;4.00;;;18.30;99.10;;;;;;5071179;28;20108;-61
2021/05/11 04:37:16;;;;;;;7.63;3.42;;;19.30;95.40;;;;;;5072043;28;20077;-60
2021/05/11 04:39:42;;;;;;;3.75;3.00;;;20.50;92.20;;;;;;5072834;28;20073;-61
2021/05/11 04:42:07;;;;;;;5.75;2.78;;;21.10;88.20;;;;;;5073129;28;20090;-57
2021/05/11 04:44:33;;;;;;;6.00;3.47;;;21.40;86.20;;;;;;5072483;28;20078;-56
2021/05/11 04:47:08;;;;;;;7.95;3.33;;;21.20;84.80;;;;;;5072311;28;20024;-59
2021/05/11 04:49:34;;;;;;;7.87;3.50;;;21.50;84.00;;;;;;5070318;28;20012;-58
2021/05/11 04:51:59;;;;;;;6.30;3.42;;;22.00;82.00;;;;;;5084885;28;20069;-58
2021/05/11 04:54:25;;;;;;;6.80;3.22;;;22.80;80.00;;;;;;5082587;28;20082;-57
2021/05/11 04:56:51;;;;;;;3.65;2.92;;;23.40;77.40;;;;;;5073077;28;20075;-58
2021/05/11 04:59:16;;;;;;;7.53;2.90;;;24.00;74.70;;;;;;5072480;28;20421;-58
2021/05/11 05:01:47;;;;;;;5.13;2.72;;;24.50;72.60;;;;;;5065803;28;20128;-59
2021/05/11 05:04:15;;;;;;;5.28;2.45;;;24.50;72.10;;;;;;5059495;28;20405;-58
2021/05/11 05:06:40;;;;;;;3.60;2.78;;;24.60;68.90;;;;;;5069459;28;20433;-58
2021/05/11 05:09:06;;;;;;;6.00;3.47;;;24.80;69.90;;;;;;5070601;28;20032;-58
2021/05/11 05:11:33;;;;;;;5.65;3.75;;;24.80;68.10;;;;;;5063968;28;20044;-59
2021/05/11 05:13:59;;;;;;;4.32;2.60;;;24.80;66.80;;;;;;5070747;28;20044;-58
2021/05/11 05:16:25;;;;;;;7.28;2.83;;;24.60;67.70;;;;;;5070867;28;20524;-57
2021/05/11 05:18:51;;;;;;;3.13;2.35;;;24.90;67.30;;;;;;5070791;28;20060;-56
2021/05/11 05:21:18;;;;;;;3.72;3.00;;;25.30;66.80;;;;;;5069275;28;20523;-59
2021/05/11 05:23:47;;;;;;;3.67;2.50;;;26.00;63.10;;;;;;5068915;28;20112;-62
2021/05/11 05:26:16;;;;;;;6.30;3.33;;;26.40;64.50;;;;;;5071107;28;20020;-63
2021/05/11 05:28:42;;;;;;;4.53;2.63;;;26.50;62.70;;;;;;5071270;28;20022;-62
2021/05/11 05:31:08;;;;;;;3.58;3.28;;;26.50;63.00;;;;;;5071820;28;20520;-63
2021/05/11 05:33:36;;;;;;;5.45;2.83;;;26.40;62.30;;;;;;5072103;28;20032;-60
2021/05/11 05:36:03;;;;;;;4.72;3.40;;;26.20;62.00;;;;;;5067020;28;20039;-64
2021/05/11 05:38:29;;;;;;;6.57;3.30;;;25.90;61.10;;;;;;5071199;28;20040;-63
2021/05/11 05:41:40;;;;;;;5.97;3.35;;;25.10;62.60;;;;;;5072007;28;20054;-63
2021/05/11 05:43:40;;;;;;;6.18;2.60;;;25.00;63.70;;;;;;5059414;28;20044;-63
2021/05/11 05:46:07;;;;;;;3.33;2.40;;;25.50;63.40;;;;;;5071481;28;20028;-62
2021/05/11 05:48:33;;;;;;;4.38;2.80;;;26.30;62.30;;;;;;5070910;28;20024;-63
2021/05/11 05:51:03;;;;;;;3.55;2.83;;;26.80;60.90;;;;;;5074893;28;20051;-64
2021/05/11 05:53:42;;;;;;;4.63;2.70;;;27.10;59.90;;;;;;5091048;28;20672;-65
2021/05/11 05:56:09;;;;;;;5.80;3.20;;;27.00;57.80;;;;;;5080736;28;20032;-64
2021/05/11 05:58:36;;;;;;;5.00;2.60;;;26.80;59.40;;;;;;5072088;28;20387;-63
2021/05/11 06:01:06;;;;;;;3.50;3.20;;;27.00;59.50;;;;;;5071063;28;20024;-64
2021/05/11 06:06:12;;;;;;;3.67;3.10;;;27.00;56.10;;;;;;5070786;28;20044;-64
2021/05/11 06:08:39;;;;;;;5.22;3.45;;;26.80;57.80;;;;;;5072285;28;20442;-64
2021/05/11 06:13:42;;;;;;;5.43;3.45;;;26.50;57.80;;;;;;5072268;28;20056;-64
2021/05/11 06:18:52;;;;;;;8.10;2.95;;;27.50;56.30;;;;;;5072272;28;20035;-64
2021/05/11 06:21:18;;;;;;;4.30;3.17;;;27.80;55.90;;;;;;5071060;28;20118;-65
2021/05/11 06:23:44;;;;;;;4.90;3.20;;;28.20;55.60;;;;;;5070791;28;20103;-63
2021/05/11 06:26:12;;;;;;;5.50;2.90;;;28.80;53.20;;;;;;5071620;28;20494;-65
2021/05/11 06:28:40;;;;;;;3.50;2.67;;;28.70;54.20;;;;;;5072226;28;20039;-64
2021/05/11 06:31:07;;;;;;;6.25;2.85;;;29.10;54.40;;;;;;5075825;28;20036;-66
2021/05/11 06:33:32;;;;;;;6.15;2.60;;;30.00;53.40;;;;;;5075665;28;20366;-66
2021/05/11 06:35:58;;;;;;;3.10;2.53;;;30.50;52.70;;;;;;5074810;28;20031;-66
2021/05/11 06:38:23;;;;;;;6.72;3.33;;;30.70;52.00;;;;;;5075661;28;20074;-65
2021/05/11 06:40:49;;;;;;;4.30;3.25;;;30.80;51.10;;;;;;5075415;28;20055;-65
2021/05/11 06:43:21;;;;;;;4.72;2.55;;;30.70;50.50;;;;;;5074089;28;20028;-63
2021/05/11 06:48:34;;;;;;;4.47;2.53;;;30.70;50.40;;;;;;5075041;28;20028;-63
2021/05/11 06:53:43;;;;;;;4.33;2.53;;;31.80;48.90;;;;;;5095545;28;20094;-64
2021/05/11 06:56:11;;;;;;;4.53;2.75;;;32.20;48.20;;;;;;5095618;28;20024;-64
2021/05/11 06:58:38;;;;;;;8.65;2.40;;;32.70;48.20;;;;;;5075118;28;20059;-62
2021/05/11 07:01:03;;;;;;;6.18;2.45;;;32.70;46.60;;;;;;5074877;28;20039;-64
2021/05/11 07:03:29;;;;;;;6.40;2.50;;;32.90;46.90;;;;;;5075212;28;20024;-63
2021/05/11 07:05:55;;;;;;;2.97;2.33;;;33.50;46.90;;;;;;5073925;28;20025;-64
2021/05/11 07:08:37;;;;;;;4.15;2.65;;;33.80;46.10;;;;;;5075378;28;20475;-64
2021/05/11 07:13:48;;;;;;;3.78;2.47;;;34.10;45.70;;;;;;5075015;28;20494;-63
2021/05/11 07:16:13;;;;;;;4.93;2.30;;;34.40;44.80;;;;;;5074728;28;20406;-64
2021/05/11 07:18:39;;;;;;;2.58;2.20;;;34.00;44.50;;;;;;5074980;28;20058;-64
2021/05/11 07:21:05;;;;;;;6.93;2.95;;;34.10;45.00;;;;;;5073913;28;20024;-66
2021/05/11 07:23:31;;;;;;;6.07;2.67;;;34.30;43.80;;;;;;5074866;28;20387;-64
2021/05/11 07:26:08;;;;;;;2.42;2.22;;;34.90;43.90;;;;;;5073353;28;20052;-63
2021/05/11 07:31:07;;;;;;;3.25;2.40;;;35.90;42.50;;;;;;5074632;28;20108;-65
2021/05/11 07:33:45;;;;;;;3.25;2.28;;;36.10;42.30;;;;;;5074722;28;20498;-67
2021/05/11 07:36:12;;;;;;;4.53;2.35;;;36.30;42.70;;;;;;5073747;28;20032;-65
2021/05/11 07:38:38;;;;;;;2.55;2.10;;;36.30;41.80;;;;;;5074569;28;20029;-59
2021/05/11 07:41:05;;;;;;;5.32;2.38;;;36.60;41.50;;;;;;5074524;28;20077;-63
2021/05/11 07:43:33;;;;;;;3.15;2.00;;;35.80;41.50;;;;;;5074106;28;20016;-64
2021/05/11 08:15:04;;;;;;;1.90;1.80;;;39.50;37.30;;;;;;5094087;28;20035;-64
2021/05/11 08:17:33;;;;;;;4.63;2.00;;;39.80;36.90;;;;;;5093909;28;20020;-61
2021/05/11 08:20:19;;;;;;;3.15;1.88;;;40.10;37.60;;;;;;5093311;28;20506;-64
2021/05/11 08:23:09;;;;;;;3.03;2.00;;;41.00;36.80;;;;;;5093939;28;20427;-64
2021/05/11 08:28:18;;;;;;;2.97;2.10;;;41.40;35.50;;;;;;5093876;28;20488;-63
2021/05/11 08:30:45;;;;;;;2.28;1.75;;;40.80;35.70;;;;;;5093809;28;20107;-62
2021/05/11 08:33:10;;;;;;;3.78;2.00;;;40.60;35.90;;;;;;5093781;28;20110;-61
2021/05/11 08:35:36;;;;;;;3.45;2.30;;;40.60;35.90;;;;;;5092836;28;20107;-64
2021/05/11 08:38:01;;;;;;;4.38;2.70;;;40.40;35.80;;;;;;5085027;28;20024;-62
2021/05/11 08:40:27;;;;;;;3.70;2.20;;;39.90;35.90;;;;;;5073346;28;20075;-60
2021/05/11 08:42:52;;;;;;;5.57;2.17;;;40.00;36.10;;;;;;5073255;28;20025;-64
2021/05/11 08:45:19;;;;;;;3.65;2.10;;;39.20;36.20;;;;;;5078549;28;20021;-65
2021/05/11 08:48:03;;;;;;;3.47;2.50;;;38.60;36.90;;;;;;5074893;28;20032;-64
2021/05/11 08:50:36;;;;;;;4.20;2.20;;;38.60;37.10;;;;;;5072472;28;20055;-66
2021/05/11 08:53:23;;;;;;;2.70;1.83;;;38.70;37.50;;;;;;5092854;28;20068;-64
2021/05/11 09:04:38;;;;;;;4.30;2.05;;;39.10;36.30;;;;;;5093423;28;20517;-63
2021/05/11 09:24:38;;;;;;;4.15;2.53;;;38.50;37.00;;;;;;5093129;28;20423;-62
2021/05/11 09:26:54;;;;;;;3.95;2.30;;;38.60;37.00;;;;;;5092046;28;20064;-62
2021/05/11 09:29:27;;;;;;;6.00;2.63;;;38.80;36.80;;;;;;5093006;28;20020;-62
2021/05/11 09:34:43;;;;;;;3.45;2.42;;;38.40;36.20;;;;;;5092912;28;20371;-63
2021/05/11 09:46:07;;;;;;;4.03;2.47;;;37.10;37.90;;;;;;5072311;28;20173;-61
2021/05/11 09:54:33;;;;;;;3.35;2.58;;;35.70;39.10;;;;;;5092570;28;20078;-63
2021/05/11 10:14:16;;;;;;;5.07;2.53;;;30.90;44.90;;;;;;5095681;28;20068;-62
2021/05/11 10:49:36;;;;;;;8.20;3.38;;;28.20;50.10;;;;;;5074448;28;20111;-61
2021/05/11 10:52:26;;;;;;;7.32;3.80;;;28.10;50.90;;;;;;5087744;28;20069;-61
2021/05/11 10:55:06;;;;;;;6.35;3.75;;;27.90;50.10;;;;;;5094466;28;20044;-61
2021/05/11 11:00:38;;;;;;;7.70;3.28;;;27.70;50.20;;;;;;5094895;28;20463;-60
2021/05/11 11:03:23;;;;;;;4.72;3.08;;;27.70;51.10;;;;;;5094443;28;20130;-61
2021/05/11 11:05:53;;;;;;;6.03;3.40;;;27.80;51.00;;;;;;5093488;28;20051;-60
2021/05/11 11:08:39;;;;;;;4.75;3.40;;;27.80;51.20;;;;;;5094499;28;20028;-60
2021/05/11 11:11:17;;;;;;;8.75;3.25;;;27.90;51.20;;;;;;5094659;28;20081;-61
2021/05/11 11:13:45;;;;;;;5.78;3.38;;;28.00;50.90;;;;;;5094298;28;20055;-61
2021/05/11 11:16:11;;;;;;;7.07;3.90;;;28.20;50.50;;;;;;5094048;28;20032;-63
2021/05/11 11:18:38;;;;;;;7.28;3.60;;;28.10;50.30;;;;;;5094170;28;20580;-61
2021/05/11 11:23:47;;;;;;;4.93;2.90;;;27.90;50.70;;;;;;5094121;28;20035;-61
2021/05/11 11:26:13;;;;;;;6.30;3.58;;;27.90;51.10;;;;;;5094266;28;20479;-62
2021/05/11 11:28:39;;;;;;;5.93;3.45;;;28.00;50.60;;;;;;5093730;28;20390;-61
2021/05/11 11:31:21;;;;;;;5.80;3.20;;;28.10;50.90;;;;;;5094087;28;20465;-61
2021/05/11 11:33:46;;;;;;;6.65;3.15;;;28.00;50.50;;;;;;5093562;28;20020;-61
2021/05/11 11:36:33;;;;;;;10.10;3.00;;;27.90;50.70;;;;;;5092816;28;20217;-62
2021/05/11 11:39:00;;;;;;;5.35;2.72;;;27.90;50.80;;;;;;5093451;28;20050;-61
2021/05/11 11:41:27;;;;;;;6.88;3.10;;;27.80;50.40;;;;;;5093299;28;20374;-61
2021/05/11 11:43:53;;;;;;;6.70;3.08;;;27.80;50.90;;;;;;5082148;28;20071;-60
2021/05/11 11:46:29;;;;;;;4.05;3.00;;;27.70;50.80;;;;;;5073367;28;20036;-60
2021/05/11 11:49:04;;;;;;;9.07;3.70;;;27.80;51.30;;;;;;5072896;28;20024;-61
2021/05/11 11:51:33;;;;;;;9.23;3.15;;;27.90;52.10;;;;;;5081253;28;20039;-61
2021/05/11 11:54:17;;;;;;;4.97;3.00;;;28.00;51.60;;;;;;5093348;28;20111;-60
2021/05/11 11:59:28;;;;;;;8.35;3.00;;;28.10;51.10;;;;;;5093518;28;20433;-62
2021/05/11 12:01:58;;;;;;;5.25;2.90;;;28.10;51.10;;;;;;5093399;28;20024;-61
2021/05/11 12:04:24;;;;;;;7.10;3.45;;;28.20;51.30;;;;;;5092882;28;20073;-61
2021/05/11 12:06:51;;;;;;;4.60;3.10;;;28.20;50.70;;;;;;5092799;28;20106;-60
2021/05/11 12:09:18;;;;;;;3.55;2.63;;;28.30;50.10;;;;;;5093284;28;20021;-61
2021/05/11 12:11:44;;;;;;;4.55;3.08;;;28.20;50.20;;;;;;5093395;28;20028;-61
2021/05/11 12:14:11;;;;;;;5.82;2.97;;;28.20;50.40;;;;;;5093322;28;20095;-61
2021/05/11 12:16:44;;;;;;;3.55;2.90;;;28.30;50.50;;;;;;5093265;28;20066;-61
2021/05/11 12:19:17;;;;;;;4.70;2.70;;;28.30;50.60;;;;;;5075135;28;20024;-60
2021/05/11 12:22:02;;;;;;;4.25;2.80;;;28.30;50.20;;;;;;5072039;28;20036;-61
2021/05/11 12:24:29;;;;;;;5.57;2.95;;;28.30;50.20;;;;;;5072823;28;20074;-60
2021/05/11 12:27:24;;;;;;;4.40;2.95;;;28.20;50.30;;;;;;5071903;28;20222;-61
2021/05/11 12:29:59;;;;;;;6.78;2.97;;;28.30;50.80;;;;;;5072588;28;20028;-61
2021/05/11 12:32:25;;;;;;;6.07;2.95;;;28.30;50.10;;;;;;5072810;28;20415;-61
2021/05/11 12:35:09;;;;;;;4.05;3.00;;;28.30;50.30;;;;;;5071379;28;20075;-60
2021/05/11 12:38:04;;;;;;;3.78;2.33;;;28.30;50.40;;;;;;5071202;28;20475;-60
2021/05/11 12:40:51;;;;;;;3.78;2.83;;;28.30;50.20;;;;;;5070510;28;20040;-61
2021/05/11 12:43:45;;;;;;;4.38;2.85;;;28.40;50.50;;;;;;5066397;28;20024;-59
2021/05/11 12:46:29;;;;;;;4.78;2.90;;;28.50;50.30;;;;;;5056224;28;20072;-60
2021/05/11 12:49:03;;;;;;;5.18;2.80;;;28.50;49.50;;;;;;5062357;28;20017;-60
2021/05/11 12:51:44;;;;;;;4.50;2.72;;;28.50;49.40;;;;;;5059936;28;20027;-60
2021/05/11 12:54:23;;;;;;;3.55;2.33;;;28.50;49.50;;;;;;5063518;28;20052;-61
2021/05/11 12:59:36;;;;;;;4.43;2.70;;;28.50;48.90;;;;;;5070414;28;20035;-60
2021/05/11 13:02:09;;;;;;;3.10;2.17;;;28.50;48.80;;;;;;5071627;28;20032;-60
2021/05/11 13:15:44;;;;;;;4.25;2.75;;;28.70;48.10;;;;;;5071257;28;20043;-61
2021/05/11 13:21:15;;;;;;;4.32;2.30;;;28.80;47.80;;;;;;5066383;28;20031;-60
2021/05/11 13:26:12;;;;;;;5.05;2.20;;;28.90;47.50;;;;;;5070526;28;20040;-61
2021/05/11 13:29:00;;;;;;;4.80;2.53;;;29.00;47.60;;;;;;5069119;28;20025;-60
2021/05/11 13:31:40;;;;;;;4.28;2.33;;;29.00;47.30;;;;;;5070626;28;20032;-60
2021/05/11 13:36:35;;;;;;;6.43;2.70;;;29.00;47.20;;;;;;5069717;28;20024;-61
2021/05/11 13:39:03;;;;;;;6.15;2.55;;;29.10;46.70;;;;;;5070269;28;20036;-61
2021/05/11 13:41:30;;;;;;;3.38;1.73;;;29.10;46.40;;;;;;5070504;28;20017;-61
2021/05/11 13:43:55;;;;;;;4.25;2.47;;;29.20;46.50;;;;;;5070299;28;20025;-60
2021/05/11 13:46:21;;;;;;;3.00;2.25;;;29.30;46.70;;;;;;5070304;28;20024;-61
2021/05/11 13:48:48;;;;;;;3.65;2.20;;;29.30;46.60;;;;;;5070583;28;20112;-61
2021/05/11 13:51:16;;;;;;;3.92;1.83;;;29.50;46.50;;;;;;5071585;28;20040;-60
2021/05/11 13:53:45;;;;;;;2.30;1.90;;;29.50;46.50;;;;;;5063515;28;20131;-60
2021/05/11 14:04:25;;;;;;;4.78;2.38;;;30.00;46.00;;;;;;5069362;28;20059;-60
2021/05/11 14:06:50;;;;;;;4.50;2.30;;;29.80;46.20;;;;;;5070411;28;20029;-61
2021/05/11 14:09:17;;;;;;;7.25;2.20;;;29.80;46.70;;;;;;5070023;28;20149;-62
2021/05/11 14:11:42;;;;;;;7.93;2.72;;;29.70;46.50;;;;;;5070400;28;20067;-60
2021/05/11 14:14:10;;;;;;;3.70;2.47;;;29.70;46.40;;;;;;5070044;28;20066;-60
2021/05/11 14:16:36;;;;;;;3.35;2.10;;;29.70;46.40;;;;;;5070355;28;20100;-59
2021/05/11 14:19:01;;;;;;;3.30;2.30;;;29.60;46.50;;;;;;5069985;28;20383;-59
2021/05/11 14:21:27;;;;;;;3.65;2.78;;;29.50;46.60;;;;;;5070120;28;20035;-60
2021/05/11 14:23:55;;;;;;;2.70;2.20;;;29.50;46.50;;;;;;5071758;28;20032;-61
2021/05/11 14:26:21;;;;;;;3.58;2.10;;;29.60;46.60;;;;;;5070834;28;20032;-61
2021/05/11 14:28:47;;;;;;;3.95;2.03;;;29.70;46.70;;;;;;5071148;28;20036;-61
2021/05/11 14:31:12;;;;;;;5.63;2.45;;;29.70;46.40;;;;;;5067080;28;20103;-60
2021/05/11 14:33:39;;;;;;;4.45;2.33;;;29.70;46.10;;;;;;5070785;28;20099;-61
2021/05/11 14:36:07;;;;;;;5.72;2.47;;;29.70;46.20;;;;;;5069602;28;20028;-59
2021/05/11 14:38:32;;;;;;;2.67;2.03;;;29.80;46.00;;;;;;5070579;28;20025;-60
2021/05/11 14:41:02;;;;;;;3.47;2.10;;;29.80;45.80;;;;;;5070803;28;20024;-61
2021/05/11 14:43:28;;;;;;;6.80;2.13;;;29.90;45.60;;;;;;5070444;28;20035;-58
2021/05/11 14:45:54;;;;;;;6.32;2.75;;;30.00;44.80;;;;;;5076966;28;20040;-61
2021/05/11 14:48:19;;;;;;;5.03;2.88;;;30.10;45.00;;;;;;5073109;28;20412;-62
2021/05/11 14:50:45;;;;;;;4.43;2.53;;;30.10;45.10;;;;;;5060258;28;20028;-60
2021/05/11 14:53:10;;;;;;;5.03;2.00;;;30.10;45.20;;;;;;5081052;28;20092;-60
2021/05/11 14:55:36;;;;;;;6.50;2.47;;;30.10;45.70;;;;;;5074083;28;20036;-61
2021/05/11 14:58:01;;;;;;;5.05;1.85;;;30.00;44.70;;;;;;5073927;28;20490;-62
2021/05/11 15:00:27;;;;;;;4.13;2.05;;;29.90;44.20;;;;;;5072723;28;20029;-60
2021/05/11 15:02:52;;;;;;;5.57;2.53;;;29.80;43.90;;;;;;5073499;28;20025;-61
2021/05/11 15:05:18;;;;;;;8.80;2.25;;;29.80;44.00;;;;;;5072304;28;20044;-61
2021/05/11 15:07:43;;;;;;;4.15;2.40;;;29.70;44.10;;;;;;5073384;28;20036;-60
2021/05/11 15:10:09;;;;;;;2.08;1.83;;;29.70;43.20;;;;;;5073800;28;20125;-60
2021/05/11 15:12:35;;;;;;;6.10;2.25;;;29.70;42.80;;;;;;5073788;28;20025;-60
2021/05/11 15:15:01;;;;;;;6.40;2.00;;;29.70;42.80;;;;;;5073522;28;20026;-59
2021/05/11 15:19:54;;;;;;;11.77;2.33;;;29.60;42.60;;;;;;5067800;28;20032;-60
2021/05/11 15:22:21;;;;;;;3.75;1.77;;;29.60;42.70;;;;;;5073148;28;20033;-63
2021/05/11 15:24:48;;;;;;;2.95;1.60;;;29.60;42.70;;;;;;5073479;28;20073;-62
2021/05/11 15:27:14;;;;;;;6.85;1.80;;;29.60;43.00;;;;;;5073212;28;20503;-61
2021/05/11 15:29:41;;;;;;;8.68;2.10;;;29.50;43.00;;;;;;5073340;28;20099;-62
2021/05/11 15:32:44;;;;;;;4.60;2.40;;;29.50;42.80;;;;;;5073085;28;20036;-64
2021/05/11 15:35:14;;;;;;;3.38;1.55;;;29.40;43.00;;;;;;5071892;28;20535;-60
2021/05/11 15:37:41;;;;;;;5.35;1.77;;;29.30;43.30;;;;;;5073621;28;20470;-59
2021/05/11 15:40:09;;;;;;;4.60;1.98;;;29.30;43.40;;;;;;5073165;28;20044;-59
2021/05/11 15:42:34;;;;;;;5.15;2.17;;;29.30;44.00;;;;;;5072998;28;20352;-59
2021/05/11 15:45:00;;;;;;;4.70;2.28;;;29.20;45.30;;;;;;5073066;28;20032;-61
2021/05/11 15:47:26;;;;;;;4.32;1.70;;;29.20;45.90;;;;;;5072600;28;20032;-61
2021/05/11 15:49:51;;;;;;;4.65;2.05;;;29.10;46.00;;;;;;5071652;28;20024;-61
2021/05/11 15:52:17;;;;;;;4.20;2.20;;;29.10;46.30;;;;;;5078656;28;20046;-61
2021/05/11 15:54:42;;;;;;;4.03;1.63;;;29.00;46.70;;;;;;5072432;28;20080;-61
2021/05/11 15:57:08;;;;;;;1.92;1.70;;;29.00;46.90;;;;;;5072772;28;20191;-59
2021/05/11 15:59:34;;;;;;;2.40;1.80;;;28.90;47.00;;;;;;5073109;28;20028;-58
2021/05/11 16:02:00;;;;;;;4.68;2.40;;;28.90;47.30;;;;;;5071551;28;20039;-59
2021/05/11 16:04:25;;;;;;;4.45;2.22;;;28.80;47.70;;;;;;5071490;28;20378;-60
2021/05/11 16:06:51;;;;;;;4.38;2.30;;;28.80;47.90;;;;;;5073038;28;20020;-60
2021/05/11 16:09:16;;;;;;;4.15;1.73;;;28.80;47.90;;;;;;5072610;28;20040;-60
2021/05/11 16:11:42;;;;;;;3.00;1.90;;;28.70;47.80;;;;;;5072984;28;20135;-60
2021/05/11 16:14:07;;;;;;;2.88;2.50;;;28.70;48.20;;;;;;5072738;28;20048;-59
2021/05/11 16:16:34;;;;;;;4.03;2.75;;;28.60;48.70;;;;;;5072648;28;20025;-60
2021/05/11 16:18:59;;;;;;;4.47;2.80;;;28.60;49.20;;;;;;5072897;28;20028;-60
2021/05/11 16:21:25;;;;;;;5.70;4.22;;;28.60;49.70;;;;;;5071111;28;20036;-60
2021/05/11 16:23:52;;;;;;;5.70;3.00;;;28.60;50.10;;;;;;5072708;28;20379;-59
2021/05/11 16:26:18;;;;;;;5.63;3.63;;;28.60;50.30;;;;;;5072408;28;20068;-60
2021/05/11 16:28:43;;;;;;;6.88;3.47;;;28.60;50.60;;;;;;5072406;28;20052;-60
2021/05/11 16:31:09;;;;;;;6.30;2.85;;;28.60;51.10;;;;;;5071991;28;20028;-60
2021/05/11 16:33:36;;;;;;;6.07;3.00;;;28.50;52.00;;;;;;5071961;28;20100;-60
2021/05/11 16:36:01;;;;;;;5.03;3.10;;;28.50;52.90;;;;;;5071114;28;20027;-60
2021/05/11 16:38:27;;;;;;;5.88;3.00;;;28.40;53.60;;;;;;5072205;28;20111;-59
2021/05/11 16:40:54;;;;;;;6.28;3.22;;;28.30;54.30;;;;;;5072185;28;20064;-60
2021/05/11 16:43:22;;;;;;;7.20;3.85;;;28.30;54.70;;;;;;5069320;28;20035;-61
2021/05/11 16:45:48;;;;;;;7.18;3.38;;;28.30;55.30;;;;;;5070149;28;20025;-58
2021/05/11 16:48:15;;;;;;;7.05;3.28;;;28.20;55.90;;;;;;5071901;28;20024;-61